createdAt,value
2019-06-01T00:00:18.734Z,102067.65
2019-06-01T00:02:55.477Z,102072.94
2019-06-01T00:05:19.751Z,102069.98
2019-06-01T00:07:50.607Z,102068.79
2019-06-01T00:10:20.357Z,102063.42
2019-06-01T00:12:50.291Z,102071.63
2019-06-01T00:15:19.891Z,102074.19
2019-06-01T00:17:50.035Z,102071.42
2019-06-01T00:20:19.802Z,102074.09
2019-06-01T00:22:52.337Z,102071.63
2019-06-01T00:25:25.118Z,102072.28
2019-06-01T00:27:54.769Z,102071.30
2019-06-01T00:30:27.369Z,102069.72
2019-06-01T00:32:55.974Z,102075.53
2019-06-01T00:35:25.648Z,102073.41
2019-06-01T00:37:55.271Z,102073.56
2019-06-01T00:40:24.952Z,102068.48
2019-06-01T00:42:54.607Z,102071.50
2019-06-01T00:45:24.235Z,102068.73
2019-06-01T00:47:53.859Z,102068.28
2019-06-01T00:50:23.782Z,102068.13
2019-06-01T00:52:53.509Z,102068.19
2019-06-01T00:55:23.684Z,102065.95
2019-06-01T00:57:54.024Z,102068.59
2019-06-01T01:00:23.743Z,102076.98
2019-06-01T01:02:54.376Z,102077.03
2019-06-01T01:05:24.498Z,102071.91
2019-06-01T01:07:55.097Z,102075.70
2019-06-01T01:10:24.825Z,102074.75
2019-06-01T01:13:04.763Z,102073.41
2019-06-01T01:15:34.957Z,102078.65
2019-06-01T01:18:06.896Z,102079.16
2019-06-01T01:20:38.070Z,102080.28
2019-06-01T01:23:08.554Z,102078.75
2019-06-01T01:25:38.161Z,102083.55
2019-06-01T01:28:07.852Z,102085.22
2019-06-01T01:30:37.671Z,102082.05
2019-06-01T01:33:07.566Z,102083.53
2019-06-01T01:35:37.234Z,102080.33
2019-06-01T01:38:06.863Z,102078.16
2019-06-01T01:40:36.495Z,102080.33
2019-06-01T01:43:06.161Z,102075.59
2019-06-01T01:45:35.778Z,102074.76
2019-06-01T01:48:05.664Z,102069.58
2019-06-01T01:50:35.638Z,102065.78
2019-06-01T01:53:05.330Z,102061.25
2019-06-01T01:55:34.954Z,102061.39
2019-06-01T01:58:04.679Z,102062.06
2019-06-01T02:00:40.561Z,102068.61
2019-06-01T02:03:10.374Z,102070.11
2019-06-01T02:05:40.047Z,102069.17
2019-06-01T02:08:10.098Z,102072.17
2019-06-01T02:10:39.940Z,102069.22
2019-06-01T02:13:09.899Z,102070.64
2019-06-01T02:15:41.075Z,102067.92
2019-06-01T02:18:10.793Z,102067.22
2019-06-01T02:20:40.404Z,102065.05
2019-06-01T02:23:10.037Z,102067.16
2019-06-01T02:25:40.484Z,102066.91
2019-06-01T02:28:10.555Z,102068.59
2019-06-01T02:30:40.253Z,102070.62
2019-06-01T02:33:10.060Z,102080.50
2019-06-01T02:35:45.794Z,102072.26
2019-06-01T02:38:15.382Z,102073.77
2019-06-01T02:40:45.430Z,102073.90
2019-06-01T02:43:15.111Z,102078.13
2019-06-01T02:45:45.000Z,102072.95
2019-06-01T02:48:14.680Z,102076.66
2019-06-01T02:50:44.282Z,102078.08
2019-06-01T02:53:13.920Z,102080.50
2019-06-01T02:55:44.557Z,102085.28
2019-06-01T02:58:14.190Z,102086.21
2019-06-01T03:00:49.608Z,102083.42
2019-06-01T03:03:19.517Z,102079.08
2019-06-01T03:05:50.680Z,102076.72
2019-06-01T03:08:20.638Z,102083.20
2019-06-01T03:10:52.606Z,102072.95
2019-06-01T03:13:25.017Z,102076.85
2019-06-01T03:15:56.693Z,102078.66
2019-06-01T03:18:28.208Z,102077.73
2019-06-01T03:20:59.810Z,102076.32
2019-06-01T03:23:31.284Z,102074.55
2019-06-01T03:26:04.481Z,102068.05
2019-06-01T03:28:37.152Z,102071.45
2019-06-01T03:31:08.818Z,102069.48
2019-06-01T03:33:38.146Z,102067.00
2019-06-01T03:36:08.987Z,102061.88
2019-06-01T03:38:38.848Z,102067.45
2019-06-01T03:41:08.684Z,102071.15
2019-06-01T03:43:38.395Z,102073.70
2019-06-01T03:46:08.768Z,102071.42
2019-06-01T03:48:39.968Z,102078.77
2019-06-01T03:51:09.885Z,102065.73
2019-06-01T03:53:39.643Z,102075.78
2019-06-01T03:56:09.297Z,102068.77
2019-06-01T03:58:39.497Z,102071.51
2019-06-01T04:01:09.595Z,102068.95
2019-06-01T04:03:39.543Z,102061.52
2019-06-01T04:06:09.490Z,102068.42
2019-06-01T04:08:39.290Z,102057.95
2019-06-01T04:11:09.770Z,102070.28
2019-06-01T04:13:40.447Z,102071.33
2019-06-01T04:16:10.352Z,102066.79
2019-06-01T04:18:40.371Z,102072.62
2019-06-01T04:21:10.334Z,102064.58
2019-06-01T04:23:40.028Z,102062.36
2019-06-01T04:26:10.288Z,102070.66
2019-06-01T04:28:40.093Z,102068.09
2019-06-01T04:31:10.853Z,102067.27
2019-06-01T04:33:40.642Z,102071.80
2019-06-01T04:36:10.968Z,102070.08
2019-06-01T04:38:40.933Z,102072.89
2019-06-01T04:41:11.978Z,102069.22
2019-06-01T04:43:41.743Z,102067.61
2019-06-01T04:46:12.341Z,102066.05
2019-06-01T04:48:42.206Z,102071.38
2019-06-01T04:51:13.377Z,102073.73
2019-06-01T04:53:43.239Z,102076.52
2019-06-01T04:56:13.118Z,102076.52
2019-06-01T04:58:42.760Z,102073.59
2019-06-01T05:01:13.049Z,102079.86
2019-06-01T05:03:42.826Z,102083.56
2019-06-01T05:06:13.415Z,102087.96
2019-06-01T05:08:43.463Z,102093.64
2019-06-01T05:11:13.546Z,102079.09
2019-06-01T05:13:43.279Z,102084.91
2019-06-01T05:16:14.846Z,102082.35
2019-06-01T05:18:44.814Z,102087.17
2019-06-01T05:21:15.260Z,102089.99
2019-06-01T05:23:45.312Z,102084.12
2019-06-01T05:26:15.162Z,102084.06
2019-06-01T05:28:44.813Z,102086.84
2019-06-01T05:31:21.984Z,102086.59
2019-06-01T05:33:45.959Z,102084.23
2019-06-01T05:36:16.246Z,102083.89
2019-06-01T05:38:46.046Z,102083.12
2019-06-01T05:41:16.695Z,102087.52
2019-06-01T05:43:46.327Z,102097.03
2019-06-01T05:46:16.165Z,102094.62
2019-06-01T05:48:45.782Z,102089.91
2019-06-01T05:51:18.141Z,102091.19
2019-06-01T05:53:46.793Z,102097.69
2019-06-01T05:56:16.882Z,102091.95
2019-06-01T05:58:46.652Z,102093.92
2019-06-01T06:01:16.491Z,102088.64
2019-06-01T06:03:46.221Z,102090.16
2019-06-01T06:06:15.874Z,102086.16
2019-06-01T06:08:45.487Z,102077.46
2019-06-01T06:11:15.156Z,102077.09
2019-06-01T06:13:44.778Z,102078.09
2019-06-01T06:16:15.632Z,102072.20
2019-06-01T06:18:45.706Z,102074.00
2019-06-01T06:21:16.064Z,102075.51
2019-06-01T06:23:45.745Z,102073.58
2019-06-01T06:26:16.820Z,102074.67
2019-06-01T06:28:46.724Z,102076.57
2019-06-01T06:31:17.027Z,102076.41
2019-06-01T06:33:56.126Z,102077.82
2019-06-01T06:36:19.685Z,102073.03
2019-06-01T06:38:49.428Z,102071.13
2019-06-01T06:41:20.355Z,102070.91
2019-06-01T06:43:50.796Z,102067.27
2019-06-01T06:46:20.762Z,102066.03
2019-06-01T06:48:51.148Z,102067.89
2019-06-01T06:51:21.268Z,102070.78
2019-06-01T06:53:50.964Z,102075.08
2019-06-01T06:56:21.749Z,102078.77
2019-06-01T06:58:51.643Z,102077.98
2019-06-01T07:01:22.812Z,102077.97
2019-06-01T07:03:52.678Z,102076.52
2019-06-01T07:06:23.574Z,102074.89
2019-06-01T07:08:54.069Z,102066.09
2019-06-01T07:11:24.002Z,102077.11
2019-06-01T07:13:54.709Z,102074.76
2019-06-01T07:16:25.463Z,102074.52
2019-06-01T07:18:55.209Z,102068.64
2019-06-01T07:21:25.852Z,102073.27
2019-06-01T07:23:55.674Z,102067.28
2019-06-01T07:26:26.209Z,102064.19
2019-06-01T07:28:56.013Z,102063.67
2019-06-01T07:31:26.510Z,102067.36
2019-06-01T07:33:56.192Z,102064.50
2019-06-01T07:36:26.714Z,102066.93
2019-06-01T07:38:56.788Z,102067.66
2019-06-01T07:41:26.737Z,102072.64
2019-06-01T07:43:56.383Z,102065.64
2019-06-01T07:46:26.900Z,102071.45
2019-06-01T07:48:56.588Z,102074.78
2019-06-01T07:51:27.406Z,102072.03
2019-06-01T07:53:57.381Z,102077.00
2019-06-01T07:56:27.066Z,102074.70
2019-06-01T07:58:56.684Z,102072.52
2019-06-01T08:01:27.807Z,102071.16
2019-06-01T08:03:57.869Z,102074.84
2019-06-01T08:06:28.109Z,102073.83
2019-06-01T08:08:58.800Z,102065.92
2019-06-01T08:11:32.745Z,102067.48
2019-06-01T08:14:00.499Z,102064.77
2019-06-01T08:16:30.134Z,102065.87
2019-06-01T08:19:00.103Z,102067.33
2019-06-01T08:21:30.175Z,102057.15
2019-06-01T08:23:59.798Z,102061.09
2019-06-01T08:26:30.540Z,102062.12
2019-06-01T08:29:00.363Z,102059.75
2019-06-01T08:31:31.813Z,102058.28
2019-06-01T08:34:02.204Z,102054.68
2019-06-01T08:36:33.762Z,102052.48
2019-06-01T08:39:11.123Z,102054.42
2019-06-01T08:41:40.996Z,102050.75
2019-06-01T08:44:10.940Z,102051.77
2019-06-01T08:46:40.560Z,102047.27
2019-06-01T08:49:10.325Z,102044.42
2019-06-01T08:51:40.099Z,102045.90
2019-06-01T08:54:09.785Z,102040.75
2019-06-01T08:56:39.707Z,102037.60
2019-06-01T08:59:09.699Z,102034.83
2019-06-01T09:01:39.416Z,102031.61
2019-06-01T09:04:09.203Z,102029.33
2019-06-01T09:06:39.128Z,102030.23
2019-06-01T09:09:11.652Z,102031.59
2019-06-01T09:11:40.418Z,102017.14
2019-06-01T09:14:10.041Z,102023.66
2019-06-01T09:16:39.758Z,102021.25
2019-06-01T09:19:11.746Z,102019.03
2019-06-01T09:21:41.521Z,102018.18
2019-06-01T09:24:11.148Z,102016.78
2019-06-01T09:26:40.865Z,102016.23
2019-06-01T09:29:10.864Z,102015.66
2019-06-01T09:31:40.483Z,102013.91
2019-06-01T09:34:10.165Z,102015.84
2019-06-01T09:36:39.783Z,102010.39
2019-06-01T09:39:09.422Z,102021.55
2019-06-01T09:41:39.071Z,102016.83
2019-06-01T09:44:08.700Z,102011.27
2019-06-01T09:46:38.338Z,102007.56
2019-06-01T09:49:08.031Z,102006.16
2019-06-01T09:51:37.899Z,102008.70
2019-06-01T09:54:07.654Z,102000.92
2019-06-01T09:56:39.273Z,101994.38
2019-06-01T09:59:08.659Z,101997.67
2019-06-01T10:01:38.851Z,101992.76
2019-06-01T10:04:09.555Z,101997.88
2019-06-01T10:06:43.387Z,101993.34
2019-06-01T10:09:13.031Z,101987.05
2019-06-01T10:11:42.690Z,101991.17
2019-06-01T10:14:12.325Z,101979.46
2019-06-01T10:16:43.179Z,101983.34
2019-06-01T10:19:12.942Z,101976.97
2019-06-01T10:21:42.561Z,101981.80
2019-06-01T10:24:12.192Z,101977.34
2019-06-01T10:26:41.981Z,101972.70
2019-06-01T10:29:11.565Z,101977.24
2019-06-01T10:31:41.623Z,101976.94
2019-06-01T10:34:11.360Z,101971.93
2019-06-01T10:36:42.198Z,101972.91
2019-06-01T10:39:12.591Z,101968.61
2019-06-01T10:41:42.256Z,101961.39
2019-06-01T10:44:11.879Z,101965.41
2019-06-01T10:46:42.191Z,101960.73
2019-06-01T10:49:12.329Z,101964.21
2019-06-01T10:51:42.336Z,101959.16
2019-06-01T10:54:12.129Z,101957.80
2019-06-01T10:56:42.589Z,101958.69
2019-06-01T10:59:12.297Z,101953.62
2019-06-01T11:01:42.758Z,101943.09
2019-06-01T11:04:12.475Z,101947.59
2019-06-01T11:06:47.752Z,101941.23
2019-06-01T11:09:15.099Z,101929.50
2019-06-01T11:11:44.855Z,101936.94
2019-06-01T11:14:14.475Z,101932.24
2019-06-01T11:16:44.239Z,101921.94
2019-06-01T11:19:14.017Z,101919.88
2019-06-01T11:21:43.903Z,101909.56
2019-06-01T11:24:13.694Z,101915.02
2019-06-01T11:26:43.923Z,101901.24
2019-06-01T11:29:13.582Z,101913.48
2019-06-01T11:31:44.209Z,101910.53
2019-06-01T11:34:14.002Z,101915.11
2019-06-01T11:37:03.655Z,101901.84
2019-06-01T11:39:14.956Z,101907.16
2019-06-01T11:41:44.871Z,101896.34
2019-06-01T11:44:14.669Z,101892.61
2019-06-01T11:46:45.158Z,101880.84
2019-06-01T11:49:15.065Z,101876.42
2019-06-01T11:51:45.256Z,101880.64
2019-06-01T11:54:15.054Z,101880.64
2019-06-01T11:56:45.529Z,101875.23
2019-06-01T11:59:15.319Z,101881.69
2019-06-01T12:01:46.062Z,101877.58
2019-06-01T12:04:15.836Z,101873.28
2019-06-01T12:06:46.317Z,101870.39
2019-06-01T12:09:16.047Z,101872.84
2019-06-01T12:11:46.395Z,101865.13
2019-06-01T12:14:16.133Z,101855.65
2019-06-01T12:16:46.761Z,101853.94
2019-06-01T12:19:16.613Z,101855.54
2019-06-01T12:21:47.434Z,101856.16
2019-06-01T12:24:17.203Z,101847.07
2019-06-01T12:26:47.625Z,101841.42
2019-06-01T12:29:17.402Z,101835.09
2019-06-01T12:31:48.183Z,101836.50
2019-06-01T12:34:17.997Z,101827.46
2019-06-01T12:36:48.498Z,101820.86
2019-06-01T12:39:18.222Z,101814.59
2019-06-01T12:41:47.942Z,101819.46
2019-06-01T12:44:17.525Z,101810.80
2019-06-01T12:46:47.280Z,101800.47
2019-06-01T12:49:16.874Z,101797.70
2019-06-01T12:51:47.055Z,101795.68
2019-06-01T12:54:16.882Z,101788.90
2019-06-01T12:56:47.796Z,101789.28
2019-06-01T12:59:17.896Z,101791.78
2019-06-01T13:01:47.548Z,101789.92
2019-06-01T13:04:17.167Z,101790.31
2019-06-01T13:06:52.010Z,101787.03
2019-06-01T13:09:20.363Z,101785.12
2019-06-01T13:11:51.371Z,101780.48
2019-06-01T13:14:21.258Z,101784.31
2019-06-01T13:17:05.914Z,101776.11
2019-06-01T13:19:22.308Z,101776.65
2019-06-01T13:21:51.983Z,101771.75
2019-06-01T13:24:21.723Z,101774.31
2019-06-01T13:26:51.953Z,101760.98
2019-06-01T13:29:21.661Z,101755.42
2019-06-01T13:31:52.582Z,101769.20
2019-06-01T13:34:22.426Z,101754.40
2019-06-01T13:36:53.006Z,101748.48
2019-06-01T13:39:22.851Z,101762.55
2019-06-01T13:41:53.467Z,101752.89
2019-06-01T13:44:23.844Z,101740.77
2019-06-01T13:46:53.769Z,101749.55
2019-06-01T13:49:23.413Z,101742.55
2019-06-01T13:51:53.045Z,101741.41
2019-06-01T13:54:22.731Z,101738.07
2019-06-01T13:56:53.025Z,101733.55
2019-06-01T13:59:22.855Z,101735.14
2019-06-01T14:01:53.185Z,101729.63
2019-06-01T14:04:22.945Z,101735.31
2019-06-01T14:06:53.174Z,101730.59
2019-06-01T14:09:22.955Z,101721.77
2019-06-01T14:11:53.515Z,101726.83
2019-06-01T14:14:23.196Z,101726.79
2019-06-01T14:16:53.591Z,101734.64
2019-06-01T14:19:23.270Z,101739.28
2019-06-01T14:21:54.215Z,101751.83
2019-06-01T14:27:58.663Z,101751.97
2019-06-01T14:30:28.787Z,101740.95
2019-06-01T14:32:58.404Z,101756.73
2019-06-01T14:35:28.047Z,101768.81
2019-06-01T14:37:57.703Z,101769.36
2019-06-01T14:40:27.413Z,101759.14
2019-06-01T14:42:57.787Z,101773.89
2019-06-01T14:45:27.707Z,101775.44
2019-06-01T14:47:57.712Z,101791.59
2019-06-01T14:50:27.385Z,101777.78
2019-06-01T14:52:57.871Z,101768.06
2019-06-01T14:55:27.668Z,101784.70
2019-06-01T14:57:58.412Z,101798.02
2019-06-01T15:00:28.264Z,101809.84
2019-06-01T15:02:58.401Z,101804.09
2019-06-01T15:05:28.256Z,101804.06
2019-06-01T15:07:59.011Z,101809.16
2019-06-01T15:10:36.623Z,101803.14
2019-06-01T15:13:06.284Z,101795.52
2019-06-01T15:15:35.903Z,101809.16
2019-06-01T15:18:05.803Z,101821.28
2019-06-01T15:20:53.798Z,101815.02
2019-06-01T15:23:23.450Z,101799.03
2019-06-01T15:25:54.398Z,101804.23
2019-06-01T15:28:24.292Z,101807.29
2019-06-01T15:30:54.850Z,101809.03
2019-06-01T15:33:33.630Z,101804.33
2019-06-01T15:36:15.368Z,101794.98
2019-06-01T15:53:17.781Z,101775.05
2019-06-01T15:55:47.401Z,101782.00
2019-06-01T15:58:17.031Z,101782.87
2019-06-01T16:00:46.699Z,101781.36
2019-06-01T16:03:16.387Z,101787.54
2019-06-01T16:05:46.022Z,101788.14
2019-06-01T16:08:15.828Z,101792.30
2019-06-01T16:10:46.024Z,101792.66
2019-06-01T16:13:16.218Z,101795.50
2019-06-01T16:15:45.904Z,101787.85
2019-06-01T16:18:17.139Z,101789.27
2019-06-01T16:20:52.129Z,101788.30
2019-06-01T16:23:21.835Z,101781.14
2019-06-01T16:26:03.794Z,101773.95
2019-06-01T16:35:43.345Z,101771.38
2019-06-01T16:50:16.048Z,101775.13
2019-06-01T16:56:33.399Z,101784.01
2019-06-01T16:59:04.306Z,101787.78
2019-06-01T17:01:33.931Z,101789.44
2019-06-01T17:04:04.682Z,101792.97
2019-06-01T17:06:36.230Z,101790.88
2019-06-01T17:09:08.057Z,101785.58
2019-06-01T17:11:37.859Z,101785.33
2019-06-01T17:27:44.539Z,101777.72
2019-06-01T17:30:14.226Z,101771.02
2019-06-01T17:33:00.704Z,101764.89
2019-06-01T17:35:29.874Z,101766.08
2019-06-01T17:38:00.698Z,101768.19
2019-06-01T17:40:37.670Z,101764.30
2019-06-01T17:43:04.691Z,101763.94
2019-06-01T17:45:34.650Z,101763.71
2019-06-01T17:48:18.093Z,101757.95
2019-06-01T17:50:36.587Z,101760.64
2019-06-01T17:53:06.786Z,101759.14
2019-06-01T17:55:40.811Z,101755.48
2019-06-01T17:58:12.242Z,101754.78
2019-06-01T18:00:42.221Z,101753.86
2019-06-01T18:03:12.244Z,101746.55
2019-06-01T18:05:42.013Z,101737.50
2019-06-01T18:08:12.650Z,101745.02
2019-06-01T18:10:54.122Z,101748.08
2019-06-01T18:13:15.397Z,101743.14
2019-06-01T18:15:45.044Z,101743.14
2019-06-01T18:18:14.870Z,101741.27
2019-06-01T18:20:44.782Z,101745.97
2019-06-01T18:23:14.454Z,101744.55
2019-06-01T18:25:44.112Z,101733.72
2019-06-01T18:28:18.617Z,101738.30
2019-06-01T18:30:45.597Z,101742.05
2019-06-01T18:33:15.327Z,101738.37
2019-06-01T18:35:45.223Z,101738.37
2019-06-01T18:38:15.466Z,101735.80
2019-06-01T18:40:46.893Z,101740.60
2019-06-01T18:43:18.767Z,101744.95
2019-06-01T18:45:49.414Z,101742.03
2019-06-01T18:48:20.181Z,101741.90
2019-06-01T18:50:49.903Z,101741.07
2019-06-01T18:53:19.603Z,101741.51
2019-06-01T18:55:49.342Z,101731.86
2019-06-01T18:58:19.895Z,101735.37
2019-06-01T19:00:49.542Z,101735.83
2019-06-01T19:03:19.216Z,101741.79
2019-06-01T19:05:48.920Z,101735.09
2019-06-01T19:08:18.545Z,101744.55
2019-06-01T19:10:49.157Z,101745.23
2019-06-01T19:13:19.279Z,101741.99
2019-06-01T19:22:08.437Z,101748.02
2019-06-01T19:28:39.807Z,101752.44
2019-06-01T19:31:15.291Z,101758.05
2019-06-01T19:33:47.076Z,101757.66
2019-06-01T19:36:17.198Z,101758.42
2019-06-01T19:38:47.512Z,101748.17
2019-06-01T19:41:17.541Z,101754.38
2019-06-01T19:43:47.675Z,101755.98
2019-06-01T19:46:18.032Z,101755.39
2019-06-01T19:48:47.901Z,101748.79
2019-06-01T19:51:18.785Z,101745.13
2019-06-01T19:53:48.733Z,101743.17
2019-06-01T19:56:20.484Z,101739.64
2019-06-01T19:58:49.764Z,101738.44
2019-06-01T20:01:19.418Z,101735.61
2019-06-01T20:03:49.117Z,101732.38
2019-06-01T20:06:18.993Z,101729.40
2019-06-01T20:08:48.695Z,101732.53
2019-06-01T20:11:19.339Z,101729.13
2019-06-01T20:13:49.348Z,101728.05
2019-06-01T20:16:20.179Z,101726.88
2019-06-01T20:18:50.315Z,101728.72
2019-06-01T20:21:20.660Z,101724.14
2019-06-01T20:23:51.842Z,101724.35
2019-06-01T20:26:38.711Z,101724.28
2019-06-01T20:28:53.446Z,101722.25
2019-06-01T20:31:23.154Z,101725.08
2019-06-01T20:33:56.240Z,101713.22
2019-06-01T20:36:24.520Z,101721.14
2019-06-01T20:38:54.164Z,101712.94
2019-06-01T20:41:23.855Z,101718.72
2019-06-01T20:43:53.529Z,101714.64
2019-06-01T20:46:23.533Z,101725.11
2019-06-01T20:48:53.220Z,101721.49
2019-06-01T20:51:26.892Z,101712.75
2019-06-01T20:53:54.446Z,101713.66
2019-06-01T20:56:24.130Z,101718.83
2019-06-01T20:58:53.755Z,101709.55
2019-06-01T21:01:38.391Z,101711.30
2019-06-01T21:04:08.769Z,101707.92
2019-06-01T21:06:38.576Z,101708.05
2019-06-01T21:09:09.392Z,101704.11
2019-06-01T21:11:39.035Z,101711.14
2019-06-01T21:14:08.643Z,101707.73
2019-06-01T21:16:38.311Z,101711.10
2019-06-01T21:19:08.028Z,101705.05
2019-06-01T21:21:37.666Z,101711.40
2019-06-01T21:24:07.346Z,101704.95
2019-06-01T21:26:36.989Z,101706.70
2019-06-01T21:29:06.622Z,101715.48
2019-06-01T21:31:36.324Z,101709.33
2019-06-01T21:34:05.945Z,101716.69
2019-06-01T21:36:35.581Z,101718.19
2019-06-01T21:39:08.018Z,101711.28
2019-06-01T21:41:37.640Z,101721.97
2019-06-01T21:44:09.274Z,101719.73
2019-06-01T21:46:40.373Z,101719.27
2019-06-01T21:49:13.891Z,101731.13
2019-06-01T21:55:18.093Z,101732.90
2019-06-01T21:57:47.753Z,101733.61
2019-06-01T22:00:30.439Z,101727.46
2019-06-01T22:03:03.228Z,101731.78
2019-06-01T22:05:34.487Z,101732.36
2019-06-01T22:08:04.564Z,101732.57
2019-06-01T22:10:34.204Z,101733.95
2019-06-01T22:13:17.666Z,101730.40
2019-06-01T22:15:35.453Z,101744.78
2019-06-01T22:18:05.704Z,101739.34
2019-06-01T22:20:35.340Z,101738.17
2019-06-01T22:23:05.200Z,101737.08
2019-06-01T22:25:36.797Z,101731.30
2019-06-01T22:28:06.521Z,101725.11
2019-06-01T22:30:36.157Z,101728.61
2019-06-01T22:33:05.779Z,101724.58
2019-06-01T22:35:35.462Z,101736.91
2019-06-01T22:38:05.227Z,101731.39
2019-06-01T22:40:34.873Z,101733.70
2019-06-01T22:43:07.907Z,101734.34
2019-06-01T22:45:37.770Z,101733.67
2019-06-01T22:48:07.410Z,101728.06
2019-06-01T22:50:37.045Z,101728.98
2019-06-01T22:53:06.804Z,101729.44
2019-06-01T22:55:36.419Z,101716.64
2019-06-01T22:58:06.129Z,101721.91
2019-06-01T23:00:35.814Z,101722.95
2019-06-01T23:03:05.479Z,101724.74
2019-06-01T23:05:35.126Z,101720.70
2019-06-01T23:08:04.873Z,101718.45
2019-06-01T23:10:35.519Z,101718.66
2019-06-01T23:13:06.059Z,101721.69
2019-06-01T23:15:35.745Z,101716.16
2019-06-01T23:18:05.447Z,101720.59
2019-06-01T23:20:35.074Z,101712.70
2019-06-01T23:23:04.801Z,101710.21
2019-06-01T23:25:34.415Z,101715.02
2019-06-01T23:28:04.049Z,101720.34
2019-06-01T23:30:33.711Z,101712.09
2019-06-01T23:33:03.336Z,101715.33
2019-06-01T23:35:32.978Z,101716.70
2019-06-01T23:38:02.715Z,101715.34
2019-06-01T23:40:32.771Z,101715.83
2019-06-01T23:43:02.713Z,101714.73
2019-06-01T23:45:34.975Z,101728.83
2019-06-01T23:48:04.669Z,101725.16
2019-06-01T23:50:34.281Z,101722.21
2019-06-01T23:53:13.162Z,101723.39
2019-06-01T23:55:35.562Z,101723.50
2019-06-01T23:58:05.618Z,101724.69
